Time;durP1;ratioP1;P1;durP2;ratioP2;P2;SDS_P1;SDS_P2;PMS_P1;PMS_P2;Temp;Humidity;BMP_temperature;BMP_pressure;BME280_temperature;BME280_humidity;BME280_pressure;Samples;Min_cycle;Max_cycle;Signal;HPM_P1;HPM_P2
2023/12/22 00:05:45;;;;;;;;;84.00;65.33;;;;;;;;6500953;39;8935;-60
2023/12/22 00:11:56;;;;;;;;;85.67;66.00;;;;;;;;6502418;31;8932;-59
2023/12/22 00:18:00;;;;;;;;;82.00;65.33;;;;;;;;6497136;46;9043;-61
2023/12/22 00:24:05;;;;;;;;;85.67;65.67;;;;;;;;6491302;46;8931;-60
2023/12/22 00:30:09;;;;;;;;;83.00;64.00;;;;;;;;6492722;39;8919;-60
2023/12/22 00:36:13;;;;;;;;;80.33;62.00;;;;;;;;6491360;39;8896;-59
2023/12/22 00:42:17;;;;;;;;;85.33;67.33;;;;;;;;6492335;39;8823;-59
2023/12/22 00:48:21;;;;;;;;;88.00;66.00;;;;;;;;6492124;31;9000;-60
2023/12/22 00:54:30;;;;;;;;;76.33;61.00;;;;;;;;6491330;39;9002;-60
2023/12/22 01:00:38;;;;;;;;;82.67;65.00;;;;;;;;6491466;39;9525;-60
2023/12/22 01:06:50;;;;;;;;;82.00;63.00;;;;;;;;6493503;36;8928;-60
2023/12/22 01:13:02;;;;;;;;;76.67;59.00;;;;;;;;6492111;46;8838;-60
2023/12/22 01:19:15;;;;;;;;;75.67;60.33;;;;;;;;6491215;39;8897;-59
2023/12/22 01:25:31;;;;;;;;;72.00;57.00;;;;;;;;6497584;36;388576;-60
2023/12/22 01:31:37;;;;;;;;;68.33;59.00;;;;;;;;6489764;31;9380;-61
2023/12/22 01:37:49;;;;;;;;;72.33;60.33;;;;;;;;6490038;39;8868;-62
2023/12/22 01:43:55;;;;;;;;;81.33;63.00;;;;;;;;6489675;39;9524;-59
2023/12/22 01:50:03;;;;;;;;;76.67;59.00;;;;;;;;6490070;31;8887;-60
2023/12/22 01:56:12;;;;;;;;;76.00;63.00;;;;;;;;6490451;31;8909;-60
2023/12/22 02:02:24;;;;;;;;;79.67;61.33;;;;;;;;6489135;39;9594;-59
2023/12/22 02:08:36;;;;;;;;;85.67;63.00;;;;;;;;6489178;46;8964;-59
2023/12/22 02:14:43;;;;;;;;;82.00;63.67;;;;;;;;6489478;39;8907;-60
2023/12/22 02:20:49;;;;;;;;;80.33;58.33;;;;;;;;6489665;46;8878;-59
2023/12/22 02:26:56;;;;;;;;;83.33;65.33;;;;;;;;6488849;39;9018;-60
2023/12/22 02:33:08;;;;;;;;;76.67;61.67;;;;;;;;6489955;39;8953;-59
2023/12/22 02:39:16;;;;;;;;;78.67;60.00;;;;;;;;6489154;39;8974;-60
2023/12/22 02:45:19;;;;;;;;;79.33;63.67;;;;;;;;6489145;39;8878;-60
2023/12/22 02:51:22;;;;;;;;;82.67;66.00;;;;;;;;6489151;39;8855;-58
2023/12/22 02:57:28;;;;;;;;;81.00;62.00;;;;;;;;6488839;39;8867;-60
2023/12/22 03:03:37;;;;;;;;;83.67;62.67;;;;;;;;6488939;39;8999;-60
2023/12/22 03:09:42;;;;;;;;;89.33;69.00;;;;;;;;6489305;39;9018;-61
2023/12/22 03:15:50;;;;;;;;;81.33;63.33;;;;;;;;6489522;39;8992;-58
2023/12/22 03:21:54;;;;;;;;;83.33;64.67;;;;;;;;6488845;31;8885;-60
2023/12/22 03:27:58;;;;;;;;;76.00;62.67;;;;;;;;6489191;39;9968;-59
2023/12/22 03:34:08;;;;;;;;;78.33;58.33;;;;;;;;6489126;47;8908;-59
2023/12/22 03:40:13;;;;;;;;;74.00;56.67;;;;;;;;6488228;39;8911;-60
2023/12/22 03:46:18;;;;;;;;;81.00;62.00;;;;;;;;6488095;39;8918;-59
2023/12/22 03:52:28;;;;;;;;;78.67;62.00;;;;;;;;6489213;39;8867;-59
2023/12/22 03:58:31;;;;;;;;;70.00;53.33;;;;;;;;6491190;39;8850;-60
2023/12/22 04:04:40;;;;;;;;;71.67;58.33;;;;;;;;6490810;39;8962;-60
2023/12/22 04:10:59;;;;;;;;;73.00;57.67;;;;;;;;6489675;39;8906;-58
2023/12/22 04:17:25;;;;;;;;;74.33;59.67;;;;;;;;6491963;31;8898;-59
2023/12/22 04:23:36;;;;;;;;;72.00;56.33;;;;;;;;6490824;46;9097;-61
2023/12/22 04:29:55;;;;;;;;;74.67;57.00;;;;;;;;6490910;39;8911;-58
2023/12/22 04:36:12;;;;;;;;;77.33;59.67;;;;;;;;6489927;46;8910;-60
2023/12/22 04:42:18;;;;;;;;;74.67;57.00;;;;;;;;6488764;39;8952;-59
2023/12/22 04:48:42;;;;;;;;;79.00;61.00;;;;;;;;6490789;39;9133;-62
2023/12/22 04:54:49;;;;;;;;;73.67;59.67;;;;;;;;6489834;46;8843;-59
2023/12/22 05:07:37;;;;;;;;;70.67;55.33;;;;;;;;6491993;46;9128;-65
2023/12/22 05:13:41;;;;;;;;;70.33;59.00;;;;;;;;6492559;39;8921;-63
2023/12/22 05:19:44;;;;;;;;;63.25;50.75;;;;;;;;6493870;31;8879;-62
2023/12/22 05:25:47;;;;;;;;;66.00;52.50;;;;;;;;6491883;46;8894;-64
2023/12/22 05:31:49;;;;;;;;;69.67;54.33;;;;;;;;6492184;31;8918;-64
2023/12/22 05:37:53;;;;;;;;;51.00;46.00;;;;;;;;6490667;46;8900;-63
2023/12/22 05:43:57;;;;;;;;;57.75;49.50;;;;;;;;6492792;46;8921;-62
2023/12/22 05:49:59;;;;;;;;;61.00;46.75;;;;;;;;6492737;46;8902;-63
2023/12/22 05:56:02;;;;;;;;;47.50;43.50;;;;;;;;6493151;39;8876;-63
2023/12/22 06:02:04;;;;;;;;;38.25;37.75;;;;;;;;6492710;31;8935;-62
2023/12/22 06:08:09;;;;;;;;;38.67;35.67;;;;;;;;6493075;46;8899;-63
2023/12/22 06:14:11;;;;;;;;;50.50;41.75;;;;;;;;6491126;39;8930;-63
2023/12/22 06:20:15;;;;;;;;;49.25;39.50;;;;;;;;6492807;39;8873;-63
2023/12/22 06:26:18;;;;;;;;;45.75;38.75;;;;;;;;6492154;46;8945;-62
2023/12/22 06:32:20;;;;;;;;;42.00;40.00;;;;;;;;6490868;46;8895;-66
2023/12/22 06:38:23;;;;;;;;;41.00;35.50;;;;;;;;6492640;46;8859;-62
2023/12/22 06:44:26;;;;;;;;;44.00;41.50;;;;;;;;6491744;46;8903;-64
2023/12/22 06:50:28;;;;;;;;;44.25;42.00;;;;;;;;6492686;39;8898;-64
2023/12/22 06:56:33;;;;;;;;;37.25;34.50;;;;;;;;6491999;31;8995;-62
2023/12/22 07:02:36;;;;;;;;;38.50;34.50;;;;;;;;6490696;47;8927;-62
2023/12/22 07:08:39;;;;;;;;;40.50;37.25;;;;;;;;6492269;39;8992;-62
2023/12/22 07:14:46;;;;;;;;;49.00;40.50;;;;;;;;6491004;39;8916;-63
2023/12/22 07:20:49;;;;;;;;;37.25;36.00;;;;;;;;6492129;31;8906;-62
2023/12/22 07:26:51;;;;;;;;;43.50;40.00;;;;;;;;6491658;46;9081;-61
2023/12/22 07:32:55;;;;;;;;;49.75;42.75;;;;;;;;6492625;39;9531;-64
2023/12/22 07:38:59;;;;;;;;;47.00;41.50;;;;;;;;6492784;31;8878;-63
2023/12/22 07:45:05;;;;;;;;;42.50;36.00;;;;;;;;6492897;31;8931;-64
2023/12/22 07:51:14;;;;;;;;;46.50;42.25;;;;;;;;6492078;39;8983;-63
2023/12/22 07:57:17;;;;;;;;;48.00;41.25;;;;;;;;6492330;39;8926;-63
2023/12/22 08:03:19;;;;;;;;;50.50;44.50;;;;;;;;6491078;39;8895;-64
2023/12/22 08:09:23;;;;;;;;;49.50;43.25;;;;;;;;6490865;46;8950;-64
2023/12/22 08:15:25;;;;;;;;;52.00;45.00;;;;;;;;6491831;46;8882;-64
2023/12/22 08:21:37;;;;;;;;;54.00;43.75;;;;;;;;6491275;39;9945;-64
2023/12/22 08:27:47;;;;;;;;;50.75;45.00;;;;;;;;6492585;39;8842;-63
2023/12/22 08:33:49;;;;;;;;;45.75;41.50;;;;;;;;6491803;46;8830;-62
2023/12/22 08:39:54;;;;;;;;;51.50;43.00;;;;;;;;6491530;46;8833;-64
2023/12/22 08:45:56;;;;;;;;;39.25;33.25;;;;;;;;6491320;39;8902;-64
2023/12/22 08:52:00;;;;;;;;;38.25;33.25;;;;;;;;6491479;39;8880;-64
2023/12/22 08:58:02;;;;;;;;;38.25;32.50;;;;;;;;6492362;39;8895;-63
2023/12/22 09:04:09;;;;;;;;;43.50;37.25;;;;;;;;6490542;31;8950;-64
2023/12/22 09:10:15;;;;;;;;;37.00;35.50;;;;;;;;6489287;39;9102;-65
2023/12/22 09:16:22;;;;;;;;;37.25;34.50;;;;;;;;6489513;39;9051;-61
2023/12/22 09:22:25;;;;;;;;;45.00;40.00;;;;;;;;6491255;39;9028;-65
2023/12/22 09:28:30;;;;;;;;;37.75;37.25;;;;;;;;6490145;31;8988;-64
2023/12/22 09:34:36;;;;;;;;;36.50;32.75;;;;;;;;6490630;46;8918;-63
2023/12/22 09:40:39;;;;;;;;;40.00;37.75;;;;;;;;6491911;39;9619;-63
2023/12/22 09:46:43;;;;;;;;;33.00;33.00;;;;;;;;6490676;39;8907;-64
2023/12/22 09:52:45;;;;;;;;;44.00;41.00;;;;;;;;6489604;46;8900;-63
2023/12/22 09:58:51;;;;;;;;;47.25;39.25;;;;;;;;6492156;31;8913;-64
2023/12/22 10:04:57;;;;;;;;;43.00;38.75;;;;;;;;6486177;46;8929;-64
2023/12/22 10:11:04;;;;;;;;;36.75;34.75;;;;;;;;6489428;46;8948;-65
2023/12/22 10:17:07;;;;;;;;;39.00;35.75;;;;;;;;6489231;46;8959;-63
2023/12/22 10:23:10;;;;;;;;;43.00;39.00;;;;;;;;6490957;39;9062;-65
2023/12/22 10:29:12;;;;;;;;;37.75;31.50;;;;;;;;6491445;46;9029;-63
2023/12/22 10:35:15;;;;;;;;;42.50;37.25;;;;;;;;6490534;46;8924;-64
2023/12/22 10:41:19;;;;;;;;;43.75;39.00;;;;;;;;6490699;46;8997;-63
2023/12/22 10:47:22;;;;;;;;;33.75;29.75;;;;;;;;6489494;39;9713;-63
2023/12/22 10:53:25;;;;;;;;;40.00;37.75;;;;;;;;6489944;39;8945;-63
2023/12/22 10:59:32;;;;;;;;;40.50;38.25;;;;;;;;6490881;39;9527;-64
2023/12/22 11:05:39;;;;;;;;;45.50;38.75;;;;;;;;6489547;39;8987;-64
2023/12/22 11:11:42;;;;;;;;;43.50;40.00;;;;;;;;6490452;39;8940;-63
2023/12/22 11:17:44;;;;;;;;;46.25;41.25;;;;;;;;6491129;39;8951;-65
2023/12/22 11:23:48;;;;;;;;;45.00;40.75;;;;;;;;6489474;39;9619;-65
2023/12/22 11:29:51;;;;;;;;;39.75;39.25;;;;;;;;6491391;31;8958;-63
2023/12/22 11:35:59;;;;;;;;;46.75;41.25;;;;;;;;6489046;39;9663;-63
2023/12/22 11:42:03;;;;;;;;;50.00;43.00;;;;;;;;6489805;39;9546;-63
2023/12/22 11:48:08;;;;;;;;;54.75;42.25;;;;;;;;6489600;47;8919;-65
2023/12/22 11:54:54;;;;;;;;;57.50;45.75;;;;;;;;6489895;39;9012;-65
2023/12/22 12:01:03;;;;;;;;;49.75;42.75;;;;;;;;6490908;39;9572;-63
2023/12/22 12:07:45;;;;;;;;;44.00;39.50;;;;;;;;6487975;31;9053;-65
2023/12/22 12:13:49;;;;;;;;;40.25;35.25;;;;;;;;6488667;46;8909;-64
2023/12/22 12:19:54;;;;;;;;;43.50;39.00;;;;;;;;6490005;39;8909;-65
2023/12/22 12:25:58;;;;;;;;;56.00;45.75;;;;;;;;6492548;39;8927;-62
2023/12/22 12:32:07;;;;;;;;;43.50;39.25;;;;;;;;6490684;46;8972;-61
2023/12/22 12:38:10;;;;;;;;;56.50;47.50;;;;;;;;6491268;46;8936;-64
2023/12/22 12:44:14;;;;;;;;;47.25;41.50;;;;;;;;6491153;46;8918;-65
2023/12/22 12:50:23;;;;;;;;;43.75;40.75;;;;;;;;6491367;31;9148;-65
2023/12/22 12:56:27;;;;;;;;;45.00;41.00;;;;;;;;6492915;39;8816;-64
2023/12/22 13:02:29;;;;;;;;;52.25;42.50;;;;;;;;6490908;46;8999;-63
2023/12/22 13:08:32;;;;;;;;;54.00;42.75;;;;;;;;6491507;31;8935;-64
2023/12/22 13:14:45;;;;;;;;;41.75;37.50;;;;;;;;6490055;31;8936;-63
2023/12/22 13:20:48;;;;;;;;;32.75;29.00;;;;;;;;6490642;39;8985;-65
2023/12/22 13:27:05;;;;;;;;;29.25;29.25;;;;;;;;6491476;39;8989;-65
2023/12/22 13:33:10;;;;;;;;;27.75;22.75;;;;;;;;6490634;46;8950;-63
2023/12/22 13:39:15;;;;;;;;;32.00;29.00;;;;;;;;6492041;31;8960;-63
2023/12/22 13:45:17;;;;;;;;;27.75;25.00;;;;;;;;6490618;39;8943;-63
2023/12/22 13:51:19;;;;;;;;;26.00;25.00;;;;;;;;6490452;46;9038;-64
2023/12/22 13:57:22;;;;;;;;;30.00;25.50;;;;;;;;6491406;31;9007;-64
2023/12/22 14:03:33;;;;;;;;;23.75;19.25;;;;;;;;6490552;46;8959;-64
2023/12/22 14:09:38;;;;;;;;;34.75;32.25;;;;;;;;6490563;46;8975;-65
2023/12/22 14:15:44;;;;;;;;;29.50;29.00;;;;;;;;6491048;39;8929;-65
2023/12/22 14:21:47;;;;;;;;;33.75;31.50;;;;;;;;6490823;31;8985;-64
2023/12/22 14:27:52;;;;;;;;;37.00;34.00;;;;;;;;6491041;39;9674;-66
2023/12/22 14:33:58;;;;;;;;;28.50;27.00;;;;;;;;6491346;31;8930;-64
2023/12/22 14:40:03;;;;;;;;;29.00;25.00;;;;;;;;6490592;39;8905;-63
2023/12/22 14:46:06;;;;;;;;;28.25;25.00;;;;;;;;6490053;31;8940;-64
2023/12/22 14:52:11;;;;;;;;;27.75;27.50;;;;;;;;6489838;39;8948;-62
2023/12/22 14:58:15;;;;;;;;;24.25;17.00;;;;;;;;6490229;46;8937;-64
2023/12/22 15:04:17;;;;;;;;;17.25;17.25;;;;;;;;6489307;47;8976;-64
2023/12/22 15:10:21;;;;;;;;;23.50;20.50;;;;;;;;6491214;47;8924;-66
2023/12/22 15:16:27;;;;;;;;;22.25;17.75;;;;;;;;6490415;39;8963;-65
2023/12/22 15:22:33;;;;;;;;;15.50;12.75;;;;;;;;6491058;31;8897;-65
2023/12/22 15:28:37;;;;;;;;;15.75;14.75;;;;;;;;6491699;39;9056;-64
2023/12/22 15:34:43;;;;;;;;;12.75;12.75;;;;;;;;6489246;47;8896;-62
2023/12/22 15:40:47;;;;;;;;;12.00;11.75;;;;;;;;6490841;39;8841;-63
2023/12/22 15:46:50;;;;;;;;;14.25;12.75;;;;;;;;6490289;47;8971;-64
2023/12/22 15:52:53;;;;;;;;;16.75;13.00;;;;;;;;6491997;46;8880;-65
2023/12/22 15:58:58;;;;;;;;;4.50;4.50;;;;;;;;6492093;39;9015;-65
2023/12/22 16:05:01;;;;;;;;;12.75;6.00;;;;;;;;6492483;39;8968;-63
2023/12/22 16:11:07;;;;;;;;;14.00;13.00;;;;;;;;6492170;46;8917;-65
2023/12/22 16:17:09;;;;;;;;;10.00;10.00;;;;;;;;6492019;46;8992;-63
2023/12/22 16:23:13;;;;;;;;;10.00;10.00;;;;;;;;6493066;39;8874;-65
2023/12/22 16:29:17;;;;;;;;;14.75;11.50;;;;;;;;6493166;31;8928;-64
2023/12/22 16:35:20;;;;;;;;;9.75;8.25;;;;;;;;6491725;39;8891;-64
2023/12/22 16:41:23;;;;;;;;;9.00;9.00;;;;;;;;6493137;39;8963;-64
2023/12/22 16:47:29;;;;;;;;;17.75;13.00;;;;;;;;6491084;39;9061;-64
2023/12/22 16:53:34;;;;;;;;;6.50;6.50;;;;;;;;6491568;39;8877;-64
2023/12/22 16:59:39;;;;;;;;;7.50;6.00;;;;;;;;6492461;39;9676;-64
2023/12/22 17:05:41;;;;;;;;;7.50;7.50;;;;;;;;6491839;31;8909;-64
2023/12/22 17:11:44;;;;;;;;;7.75;7.50;;;;;;;;6492332;31;8935;-65
2023/12/22 17:17:50;;;;;;;;;8.00;6.00;;;;;;;;6491352;46;8901;-61
2023/12/22 17:23:52;;;;;;;;;4.00;4.00;;;;;;;;6491484;46;8839;-64
2023/12/22 17:29:54;;;;;;;;;8.25;6.00;;;;;;;;6491567;46;8986;-63
2023/12/22 17:35:56;;;;;;;;;5.00;5.00;;;;;;;;6491220;31;8875;-64
2023/12/22 17:42:00;;;;;;;;;8.00;6.00;;;;;;;;6492222;46;8897;-64
2023/12/22 17:48:03;;;;;;;;;5.50;5.50;;;;;;;;6492127;39;8985;-64
2023/12/22 17:54:06;;;;;;;;;8.50;7.25;;;;;;;;6491806;46;8945;-63
2023/12/22 18:00:09;;;;;;;;;5.00;4.75;;;;;;;;6491337;46;8954;-65
2023/12/22 18:06:17;;;;;;;;;5.25;5.25;;;;;;;;6491224;46;8944;-65
2023/12/22 18:12:20;;;;;;;;;6.75;5.25;;;;;;;;6492696;39;9083;-66
2023/12/22 18:18:24;;;;;;;;;1.75;1.75;;;;;;;;6491059;46;8943;-64
2023/12/22 18:24:27;;;;;;;;;8.00;4.50;;;;;;;;6492695;39;8969;-64
2023/12/22 18:30:29;;;;;;;;;4.00;4.00;;;;;;;;6491338;46;8877;-63
2023/12/22 18:36:32;;;;;;;;;3.50;2.00;;;;;;;;6490597;39;8986;-63
2023/12/22 18:42:36;;;;;;;;;4.50;4.50;;;;;;;;6492515;31;8945;-63
2023/12/22 18:48:43;;;;;;;;;4.25;4.25;;;;;;;;6490755;39;8961;-64
2023/12/22 18:54:46;;;;;;;;;6.00;6.00;;;;;;;;6491025;39;8873;-65
2023/12/22 19:00:48;;;;;;;;;9.50;6.25;;;;;;;;6491612;39;9022;-64
2023/12/22 19:06:53;;;;;;;;;7.00;6.25;;;;;;;;6489472;47;8929;-63
2023/12/22 19:12:55;;;;;;;;;7.25;5.00;;;;;;;;6491151;39;9243;-64
2023/12/22 19:18:57;;;;;;;;;5.25;5.25;;;;;;;;6490926;39;8983;-64
2023/12/22 19:25:01;;;;;;;;;8.75;6.00;;;;;;;;6053953;36;22002476;-65
2023/12/22 19:31:05;;;;;;;;;8.00;8.00;;;;;;;;6493141;39;8886;-64
2023/12/22 19:37:07;;;;;;;;;9.00;8.25;;;;;;;;6492729;39;8891;-65
2023/12/22 19:43:10;;;;;;;;;5.75;5.75;;;;;;;;6493398;39;8900;-63
2023/12/22 19:49:13;;;;;;;;;7.00;7.00;;;;;;;;6492088;46;8871;-65
2023/12/22 19:55:15;;;;;;;;;8.00;8.00;;;;;;;;6493071;39;8821;-63
2023/12/22 20:01:27;;;;;;;;;11.25;8.50;;;;;;;;6493342;39;8926;-63
2023/12/22 20:07:29;;;;;;;;;6.00;6.00;;;;;;;;6491800;46;8989;-63
2023/12/22 20:13:32;;;;;;;;;6.25;4.00;;;;;;;;6493557;31;9640;-63
2023/12/22 20:19:35;;;;;;;;;6.50;6.50;;;;;;;;6492292;31;8857;-64
2023/12/22 20:25:37;;;;;;;;;5.50;5.00;;;;;;;;6493162;46;8875;-63
2023/12/22 20:31:41;;;;;;;;;11.25;9.25;;;;;;;;6311590;39;10000479;-64
2023/12/22 20:37:46;;;;;;;;;11.75;11.75;;;;;;;;6491853;46;8879;-64
2023/12/22 20:43:49;;;;;;;;;7.00;7.00;;;;;;;;6492019;39;8920;-63
2023/12/22 20:49:52;;;;;;;;;9.75;9.75;;;;;;;;6491847;39;8929;-62
2023/12/22 20:55:55;;;;;;;;;6.00;4.50;;;;;;;;6492912;39;8872;-63
2023/12/22 21:01:58;;;;;;;;;7.25;7.25;;;;;;;;6492343;39;9022;-63
2023/12/22 21:08:01;;;;;;;;;8.50;7.50;;;;;;;;6491765;46;8884;-64
2023/12/22 21:14:06;;;;;;;;;8.50;7.75;;;;;;;;6493548;31;8891;-63
2023/12/22 21:20:10;;;;;;;;;11.75;11.25;;;;;;;;6492270;39;9670;-64
2023/12/22 21:26:20;;;;;;;;;13.00;11.75;;;;;;;;6492339;31;8872;-62
2023/12/22 21:32:23;;;;;;;;;8.25;8.25;;;;;;;;6491821;31;8913;-63
2023/12/22 21:38:27;;;;;;;;;8.00;7.00;;;;;;;;6492343;46;8891;-61
2023/12/22 21:44:30;;;;;;;;;9.25;9.25;;;;;;;;6491362;47;8891;-64
2023/12/22 21:50:35;;;;;;;;;7.50;7.50;;;;;;;;6491931;39;9549;-62
2023/12/22 21:56:39;;;;;;;;;4.00;4.00;;;;;;;;6492243;31;8916;-63
2023/12/22 22:02:41;;;;;;;;;10.00;7.00;;;;;;;;6492762;31;8965;-62
2023/12/22 22:08:47;;;;;;;;;5.00;4.50;;;;;;;;6492297;39;8900;-62
2023/12/22 22:14:50;;;;;;;;;8.00;8.00;;;;;;;;6491866;39;9063;-63
2023/12/22 22:20:54;;;;;;;;;5.75;5.75;;;;;;;;6491404;39;8989;-62
2023/12/22 22:27:03;;;;;;;;;6.25;6.25;;;;;;;;6491603;39;9017;-63
2023/12/22 22:33:06;;;;;;;;;8.00;8.00;;;;;;;;6490121;46;8901;-63
2023/12/22 22:39:08;;;;;;;;;8.25;8.00;;;;;;;;6491120;46;8827;-63
2023/12/22 22:45:13;;;;;;;;;6.00;6.00;;;;;;;;6491726;39;8876;-63
2023/12/22 22:51:24;;;;;;;;;6.50;5.00;;;;;;;;6491424;39;9022;-63
2023/12/22 22:57:26;;;;;;;;;8.25;8.25;;;;;;;;6492588;39;8853;-62
2023/12/22 23:03:31;;;;;;;;;7.00;7.00;;;;;;;;6489775;31;9133;-64
2023/12/22 23:09:37;;;;;;;;;13.50;10.75;;;;;;;;6491687;31;8877;-64
